createdAt,value
2023-04-07T00:00:27.921Z,12.80
2023-04-07T00:03:13.709Z,12.80
2023-04-07T00:05:59.568Z,12.70
2023-04-07T00:08:45.709Z,12.90
2023-04-07T00:11:31.744Z,12.90
2023-04-07T00:14:17.370Z,12.80
2023-04-07T00:17:04.616Z,12.80
2023-04-07T00:19:50.769Z,12.80
2023-04-07T00:22:36.618Z,12.80
2023-04-07T00:25:22.331Z,13.00
2023-04-07T00:28:07.760Z,13.00
2023-04-07T00:30:53.337Z,12.80
2023-04-07T00:33:40.401Z,12.90
2023-04-07T00:36:27.115Z,12.90
2023-04-07T00:39:12.670Z,12.90
2023-04-07T00:41:58.496Z,12.90
2023-04-07T00:44:44.154Z,12.90
2023-04-07T00:47:29.789Z,12.60
2023-04-07T00:50:18.498Z,12.70
2023-04-07T00:53:04.607Z,12.70
2023-04-07T00:55:50.742Z,12.70
2023-04-07T00:58:36.670Z,12.90
2023-04-07T01:01:26.966Z,13.00
2023-04-07T01:04:21.928Z,13.10
2023-04-07T01:07:16.039Z,13.20
2023-04-07T01:10:13.382Z,13.20
2023-04-07T01:13:20.492Z,13.00
2023-04-07T01:16:12.959Z,12.90
2023-04-07T01:19:13.848Z,12.90
2023-04-07T01:22:07.722Z,12.90
2023-04-07T01:25:42.041Z,12.90
2023-04-07T01:28:44.949Z,12.90
2023-04-07T01:31:33.561Z,13.10
2023-04-07T01:34:21.325Z,13.10
2023-04-07T01:37:07.994Z,13.10
2023-04-07T01:39:54.044Z,13.00
2023-04-07T01:42:40.978Z,13.00
2023-04-07T01:45:27.585Z,13.00
2023-04-07T01:48:16.225Z,12.90
2023-04-07T01:51:02.961Z,13.00
2023-04-07T01:53:49.457Z,13.00
2023-04-07T01:56:35.169Z,13.00
2023-04-07T01:59:24.966Z,13.10
2023-04-07T02:02:11.020Z,13.00
2023-04-07T02:05:03.292Z,12.90
2023-04-07T02:07:53.712Z,13.10
2023-04-07T02:10:46.551Z,13.10
2023-04-07T02:13:34.248Z,12.90
2023-04-07T02:16:22.135Z,13.00
2023-04-07T02:19:07.853Z,13.20
2023-04-07T02:21:55.586Z,13.10
2023-04-07T02:24:41.879Z,13.10
2023-04-07T02:27:28.145Z,13.20
2023-04-07T02:30:14.488Z,13.10
2023-04-07T02:33:00.710Z,13.10
2023-04-07T02:35:46.293Z,13.00
2023-04-07T02:38:33.503Z,13.10
2023-04-07T02:41:19.610Z,13.20
2023-04-07T02:44:05.770Z,13.20
2023-04-07T02:46:51.572Z,13.30
2023-04-07T02:49:37.120Z,13.30
2023-04-07T02:52:22.694Z,13.20
2023-04-07T02:55:10.365Z,13.10
2023-04-07T02:57:56.043Z,13.30
2023-04-07T03:00:57.032Z,13.20
2023-04-07T03:03:47.928Z,13.30
2023-04-07T03:06:38.076Z,13.30
2023-04-07T03:09:31.399Z,13.30
2023-04-07T03:12:18.707Z,13.20
2023-04-07T03:15:04.933Z,13.00
2023-04-07T03:17:51.953Z,13.10
2023-04-07T03:20:38.585Z,13.10
2023-04-07T03:23:29.498Z,12.90
2023-04-07T03:26:17.527Z,13.00
2023-04-07T03:29:04.546Z,12.90
2023-04-07T03:31:50.774Z,13.00
2023-04-07T03:34:40.778Z,13.10
2023-04-07T03:37:26.850Z,12.90
2023-04-07T03:40:14.764Z,13.00
2023-04-07T03:43:00.658Z,13.20
2023-04-07T03:45:49.917Z,13.20
2023-04-07T03:48:37.778Z,13.20
2023-04-07T03:51:28.010Z,13.30
2023-04-07T03:54:16.029Z,13.20
2023-04-07T03:57:03.292Z,13.20
2023-04-07T03:59:52.792Z,13.30
2023-04-07T04:02:40.486Z,13.50
2023-04-07T04:05:28.180Z,13.40
2023-04-07T04:08:14.239Z,13.30
2023-04-07T04:11:00.581Z,13.40
2023-04-07T04:13:53.286Z,13.50
2023-04-07T04:16:39.891Z,13.30
2023-04-07T04:19:39.372Z,13.20
2023-04-07T04:22:33.559Z,13.30
2023-04-07T04:25:20.646Z,13.20
2023-04-07T04:28:10.643Z,13.10
2023-04-07T04:30:56.583Z,13.20
2023-04-07T04:33:42.655Z,13.10
2023-04-07T04:36:29.611Z,13.10
2023-04-07T04:39:20.076Z,13.00
2023-04-07T04:42:06.535Z,13.10
2023-04-07T04:44:54.688Z,13.10
2023-04-07T04:47:41.555Z,13.00
2023-04-07T04:50:27.626Z,12.90
2023-04-07T04:53:16.346Z,13.10
2023-04-07T04:56:08.541Z,13.00
2023-04-07T04:59:04.810Z,13.00
2023-04-07T05:02:02.804Z,13.00
2023-04-07T05:04:49.482Z,13.00
2023-04-07T05:07:40.569Z,13.10
2023-04-07T05:10:30.134Z,13.00
2023-04-07T05:13:16.015Z,13.10
2023-04-07T05:16:02.246Z,13.10
2023-04-07T05:18:49.137Z,13.20
2023-04-07T05:21:35.937Z,13.10
2023-04-07T05:24:23.449Z,13.20
2023-04-07T05:27:15.467Z,13.30
2023-04-07T05:30:04.588Z,13.30
2023-04-07T05:32:53.520Z,13.20
2023-04-07T05:35:55.067Z,13.30
2023-04-07T05:38:41.583Z,13.20
2023-04-07T05:41:32.103Z,13.20
2023-04-07T05:44:20.321Z,13.40
2023-04-07T05:47:08.964Z,13.40
2023-04-07T05:49:56.091Z,13.40
2023-04-07T05:52:41.803Z,13.20
2023-04-07T05:55:37.875Z,13.30
2023-04-07T05:58:28.117Z,13.30
2023-04-07T06:01:16.844Z,13.10
2023-04-07T06:04:03.478Z,13.20
2023-04-07T06:06:49.466Z,13.50
2023-04-07T06:09:37.290Z,13.30
2023-04-07T06:12:23.233Z,13.30
2023-04-07T06:15:09.795Z,13.50
2023-04-07T06:17:58.063Z,13.40
2023-04-07T06:20:43.974Z,13.50
2023-04-07T06:23:29.667Z,13.60
2023-04-07T06:26:16.320Z,13.80
2023-04-07T06:29:01.982Z,14.10
2023-04-07T06:31:47.872Z,14.10
2023-04-07T06:34:35.206Z,14.40
2023-04-07T06:37:21.064Z,14.60
2023-04-07T06:40:07.929Z,14.60
2023-04-07T06:42:54.666Z,14.70
2023-04-07T06:45:48.834Z,14.90
2023-04-07T06:48:34.478Z,15.00
2023-04-07T06:51:21.457Z,15.20
2023-04-07T06:54:12.785Z,15.20
2023-04-07T06:56:58.756Z,15.10
2023-04-07T06:59:44.264Z,14.90
2023-04-07T07:02:30.653Z,15.00
2023-04-07T07:05:16.625Z,15.00
2023-04-07T07:08:04.089Z,14.90
2023-04-07T07:10:49.695Z,14.80
2023-04-07T07:13:36.067Z,14.80
2023-04-07T07:16:24.044Z,14.90
2023-04-07T07:19:09.867Z,15.00
2023-04-07T07:21:55.786Z,15.00
2023-04-07T07:24:43.006Z,14.90
2023-04-07T07:27:28.582Z,14.90
2023-04-07T07:30:14.473Z,15.00
2023-04-07T07:33:02.970Z,15.20
2023-04-07T07:35:49.122Z,15.30
2023-04-07T07:38:36.095Z,15.60
2023-04-07T07:41:24.333Z,15.80
2023-04-07T07:44:09.815Z,16.00
2023-04-07T07:46:55.449Z,16.10
2023-04-07T07:49:42.111Z,16.00
2023-04-07T07:52:28.029Z,15.70
2023-04-07T07:55:13.832Z,15.70
2023-04-07T07:58:00.915Z,16.00
2023-04-07T08:00:46.897Z,16.10
2023-04-07T08:03:32.506Z,16.20
2023-04-07T08:06:18.588Z,16.20
2023-04-07T08:09:06.178Z,16.50
2023-04-07T08:11:52.385Z,16.60
2023-04-07T08:14:39.661Z,16.80
2023-04-07T08:17:25.829Z,16.80
2023-04-07T08:20:12.023Z,16.80
2023-04-07T08:22:57.713Z,16.80
2023-04-07T08:25:43.558Z,16.90
2023-04-07T08:28:29.227Z,17.00
2023-04-07T08:31:16.437Z,17.00
2023-04-07T08:34:02.380Z,17.10
2023-04-07T08:36:48.568Z,16.80
2023-04-07T08:39:34.118Z,16.60
2023-04-07T08:42:22.092Z,16.70
2023-04-07T08:45:09.991Z,16.60
2023-04-07T08:48:04.781Z,16.50
2023-04-07T08:50:52.980Z,16.50
2023-04-07T08:53:43.596Z,16.80
2023-04-07T08:56:29.619Z,17.20
2023-04-07T08:59:18.664Z,17.60
2023-04-07T09:02:05.758Z,17.60
2023-04-07T09:04:52.612Z,17.70
2023-04-07T09:07:40.346Z,17.60
2023-04-07T09:10:26.333Z,17.40
2023-04-07T09:13:12.300Z,17.30
2023-04-07T09:15:57.770Z,17.00
2023-04-07T09:18:44.085Z,16.90
2023-04-07T09:21:48.564Z,17.10
2023-04-07T09:24:34.478Z,17.30
2023-04-07T09:27:20.257Z,17.60
2023-04-07T09:30:14.623Z,17.70
2023-04-07T09:33:01.504Z,17.80
2023-04-07T09:35:53.365Z,17.90
2023-04-07T09:38:41.916Z,17.90
2023-04-07T09:41:28.242Z,17.80
2023-04-07T09:44:13.928Z,17.60
2023-04-07T09:46:59.732Z,17.30
2023-04-07T09:49:53.554Z,17.00
2023-04-07T09:52:52.532Z,16.80
2023-04-07T09:55:44.012Z,16.80
2023-04-07T09:58:29.864Z,16.70
2023-04-07T10:01:19.512Z,16.60
2023-04-07T10:04:05.727Z,16.60
2023-04-07T10:06:52.873Z,16.50
2023-04-07T10:09:38.541Z,16.40
2023-04-07T10:12:27.098Z,16.30
2023-04-07T10:15:15.871Z,16.10
2023-04-07T10:18:06.439Z,16.10
2023-04-07T10:20:54.986Z,15.90
2023-04-07T10:23:51.584Z,15.70
2023-04-07T10:26:41.778Z,15.50
2023-04-07T10:29:31.724Z,15.20
2023-04-07T10:32:17.979Z,15.40
2023-04-07T10:35:07.099Z,15.50
2023-04-07T10:38:16.661Z,15.30
2023-04-07T10:41:35.528Z,15.50
2023-04-07T10:47:26.553Z,15.60
2023-04-07T10:50:20.241Z,16.00
2023-04-07T10:53:08.532Z,16.10
2023-04-07T10:55:57.044Z,16.10
2023-04-07T10:58:42.980Z,16.10
2023-04-07T11:01:29.112Z,16.30
2023-04-07T11:04:16.924Z,16.50
2023-04-07T11:07:02.916Z,16.60
2023-04-07T11:09:48.867Z,16.80
2023-04-07T11:12:34.445Z,17.40
2023-04-07T11:15:22.396Z,17.90
2023-04-07T11:18:26.362Z,18.30
2023-04-07T11:21:18.564Z,18.30
2023-04-07T11:24:04.758Z,18.30
2023-04-07T11:26:51.556Z,18.20
2023-04-07T11:29:37.426Z,18.40
2023-04-07T11:32:29.630Z,18.30
2023-04-07T11:35:16.474Z,18.30
2023-04-07T11:38:03.764Z,18.10
2023-04-07T11:40:49.974Z,17.70
2023-04-07T11:43:37.765Z,17.10
2023-04-07T11:46:23.902Z,17.00
2023-04-07T11:49:11.507Z,16.80
2023-04-07T11:52:02.990Z,16.90
2023-04-07T11:54:51.151Z,17.00
2023-04-07T11:57:37.304Z,17.10
2023-04-07T12:00:23.498Z,17.30
2023-04-07T12:03:16.210Z,17.50
2023-04-07T12:06:02.940Z,17.60
2023-04-07T12:08:48.652Z,17.30
2023-04-07T12:11:37.313Z,17.60
2023-04-07T12:14:23.503Z,17.50
2023-04-07T12:17:20.937Z,17.20
2023-04-07T12:20:07.849Z,17.20
2023-04-07T12:22:54.063Z,17.30
2023-04-07T12:25:39.623Z,17.30
2023-04-07T12:28:30.057Z,17.40
2023-04-07T12:31:16.225Z,17.50
2023-04-07T12:34:01.980Z,17.60
2023-04-07T12:36:48.355Z,17.70
2023-04-07T12:39:33.848Z,17.80
2023-04-07T12:42:19.353Z,17.50
2023-04-07T12:45:11.579Z,17.30
2023-04-07T12:47:57.796Z,17.50
2023-04-07T12:50:43.448Z,17.60
2023-04-07T12:53:28.994Z,17.40
2023-04-07T12:56:14.760Z,17.50
2023-04-07T12:59:00.678Z,17.40
2023-04-07T13:01:50.247Z,17.30
2023-04-07T13:04:40.744Z,17.40
2023-04-07T13:07:27.050Z,17.20
2023-04-07T13:10:12.819Z,17.20
2023-04-07T13:12:58.830Z,17.20
2023-04-07T13:15:44.403Z,17.30
2023-04-07T13:18:31.328Z,17.40
2023-04-07T13:21:38.295Z,17.50
2023-04-07T13:24:22.754Z,17.60
2023-04-07T13:27:08.932Z,17.60
2023-04-07T13:29:54.561Z,17.40
2023-04-07T13:32:40.380Z,17.60
2023-04-07T13:35:27.678Z,17.40
2023-04-07T13:38:13.360Z,17.30
2023-04-07T13:40:59.148Z,17.30
2023-04-07T13:43:45.818Z,17.40
2023-04-07T13:46:31.946Z,17.40
2023-04-07T13:49:17.571Z,17.60
2023-04-07T13:52:04.707Z,17.50
2023-04-07T13:54:50.989Z,17.60
2023-04-07T13:57:36.511Z,18.00
2023-04-07T14:00:22.070Z,18.30
2023-04-07T14:03:08.153Z,18.50
2023-04-07T14:05:54.339Z,18.70
2023-04-07T14:08:41.475Z,18.80
2023-04-07T14:11:27.790Z,18.70
2023-04-07T14:14:13.605Z,18.30
2023-04-07T14:17:00.079Z,18.20
2023-04-07T14:19:46.519Z,18.70
2023-04-07T14:22:35.529Z,18.90
2023-04-07T14:25:22.381Z,19.10
2023-04-07T14:28:08.208Z,18.80
2023-04-07T14:30:54.592Z,18.80
2023-04-07T14:33:41.028Z,18.50
2023-04-07T14:36:27.352Z,18.20
2023-04-07T14:39:13.560Z,18.00
2023-04-07T14:42:00.855Z,18.00
2023-04-07T14:44:46.678Z,17.70
2023-04-07T14:47:32.402Z,17.60
2023-04-07T14:50:18.582Z,17.60
2023-04-07T14:53:04.717Z,17.60
2023-04-07T14:55:50.622Z,17.50
2023-04-07T14:58:39.150Z,17.30
2023-04-07T15:01:24.497Z,17.40
2023-04-07T15:04:10.763Z,17.30
2023-04-07T15:06:56.728Z,17.10
2023-04-07T15:09:42.472Z,17.00
2023-04-07T15:12:29.819Z,16.80
2023-04-07T15:15:17.422Z,16.80
2023-04-07T15:18:04.118Z,17.00
2023-04-07T15:20:50.032Z,16.40
2023-04-07T15:23:37.748Z,16.50
2023-04-07T15:26:23.713Z,16.70
2023-04-07T15:29:09.271Z,16.30
2023-04-07T15:31:56.741Z,16.30
2023-04-07T15:34:42.995Z,16.70
2023-04-07T15:37:28.596Z,17.00
2023-04-07T15:40:14.100Z,17.20
2023-04-07T15:43:00.886Z,17.40
2023-04-07T15:45:47.969Z,17.40
2023-04-07T15:48:37.481Z,17.10
2023-04-07T15:51:23.912Z,17.10
2023-04-07T15:54:09.961Z,17.00
2023-04-07T15:56:55.354Z,17.10
2023-04-07T15:59:40.925Z,17.30
2023-04-07T16:02:26.739Z,17.20
2023-04-07T16:05:14.464Z,17.40
2023-04-07T16:08:00.602Z,17.00
2023-04-07T16:10:46.138Z,17.00
2023-04-07T16:13:31.699Z,17.00
2023-04-07T16:16:19.144Z,16.90
2023-04-07T16:19:04.951Z,16.60
2023-04-07T16:21:52.631Z,16.40
2023-04-07T16:24:38.742Z,16.30
2023-04-07T16:27:24.122Z,16.20
2023-04-07T16:30:11.046Z,16.10
2023-04-07T16:32:56.593Z,16.30
2023-04-07T16:35:42.532Z,16.20
2023-04-07T16:38:30.013Z,16.10
2023-04-07T16:41:15.809Z,16.00
2023-04-07T16:44:01.264Z,16.00
2023-04-07T16:46:46.985Z,15.90
2023-04-07T16:49:32.499Z,15.70
2023-04-07T16:52:20.559Z,15.70
2023-04-07T16:55:09.132Z,15.90
2023-04-07T16:57:55.226Z,15.90
2023-04-07T17:00:40.872Z,15.90
2023-04-07T17:03:26.642Z,15.80
2023-04-07T17:06:12.517Z,15.70
2023-04-07T17:08:58.127Z,15.60
2023-04-07T17:11:45.841Z,15.60
2023-04-07T17:14:31.978Z,15.70
2023-04-07T17:17:17.879Z,15.60
2023-04-07T17:20:07.247Z,15.80
2023-04-07T17:22:52.900Z,15.80
2023-04-07T17:25:38.377Z,15.40
2023-04-07T17:28:27.685Z,15.60
2023-04-07T17:31:14.421Z,15.50
2023-04-07T17:34:00.734Z,15.60
2023-04-07T17:36:46.378Z,15.70
2023-04-07T17:39:32.538Z,15.60
2023-04-07T17:42:18.081Z,15.70
2023-04-07T17:45:08.339Z,15.60
2023-04-07T17:47:54.942Z,15.60
2023-04-07T17:50:40.958Z,15.70
2023-04-07T17:53:26.961Z,15.50
2023-04-07T17:56:12.812Z,15.30
2023-04-07T17:58:58.735Z,15.20
2023-04-07T18:01:46.552Z,15.30
2023-04-07T18:04:32.285Z,15.30
2023-04-07T18:07:37.685Z,15.30
2023-04-07T18:10:24.036Z,15.20
2023-04-07T18:13:10.087Z,15.30
2023-04-07T18:15:55.615Z,15.30
2023-04-07T18:18:43.393Z,15.30
2023-04-07T18:21:29.739Z,15.40
2023-04-07T18:24:15.542Z,15.20
2023-04-07T18:27:03.196Z,15.10
2023-04-07T18:29:49.058Z,15.10
2023-04-07T18:32:35.060Z,14.90
2023-04-07T18:35:22.791Z,15.00
2023-04-07T18:38:08.791Z,15.10
2023-04-07T18:40:54.436Z,14.90
2023-04-07T18:43:40.258Z,14.80
2023-04-07T18:46:26.024Z,14.90
2023-04-07T18:49:11.964Z,14.80
2023-04-07T18:51:58.961Z,15.00
2023-04-07T18:54:44.787Z,15.00
2023-04-07T18:57:30.707Z,14.70
2023-04-07T19:00:17.091Z,14.80
2023-04-07T19:03:03.097Z,14.70
2023-04-07T19:05:52.283Z,14.50
2023-04-07T19:08:39.988Z,14.50
2023-04-07T19:11:29.005Z,14.60
2023-04-07T19:14:14.964Z,14.60
2023-04-07T19:17:01.401Z,14.60
2023-04-07T19:19:47.324Z,14.60
2023-04-07T19:22:32.982Z,14.60
2023-04-07T19:25:20.425Z,14.70
2023-04-07T19:28:06.198Z,14.50
2023-04-07T19:30:52.098Z,14.30
2023-04-07T19:33:38.270Z,14.40
2023-04-07T19:36:24.574Z,14.40
2023-04-07T19:39:10.735Z,14.40
2023-04-07T19:41:58.553Z,14.50
2023-04-07T19:44:44.453Z,14.50
2023-04-07T19:47:30.620Z,14.60
2023-04-07T19:50:16.678Z,14.60
2023-04-07T19:53:02.831Z,14.70
2023-04-07T19:55:49.279Z,14.50
2023-04-07T19:58:38.870Z,14.70
2023-04-07T20:01:24.788Z,14.60
2023-04-07T20:04:10.668Z,14.60
2023-04-07T20:06:56.981Z,14.50
2023-04-07T20:09:42.750Z,14.40
2023-04-07T20:12:28.415Z,14.30
2023-04-07T20:15:15.574Z,14.40
2023-04-07T20:18:01.590Z,14.40
2023-04-07T20:20:47.403Z,14.30
2023-04-07T20:23:34.018Z,14.30
2023-04-07T20:26:22.062Z,14.30
2023-04-07T20:29:08.577Z,14.50
2023-04-07T20:31:55.724Z,14.50
2023-04-07T20:34:43.000Z,14.50
2023-04-07T20:37:28.660Z,14.50
2023-04-07T20:40:14.662Z,14.50
2023-04-07T20:43:00.236Z,14.30
2023-04-07T20:45:47.597Z,14.30
2023-04-07T20:48:35.029Z,14.30
2023-04-07T20:51:20.980Z,14.30
2023-04-07T20:54:08.136Z,14.30
2023-04-07T20:56:53.930Z,14.20
2023-04-07T20:59:39.472Z,14.20
2023-04-07T21:02:25.382Z,14.30
2023-04-07T21:05:13.087Z,14.20
2023-04-07T21:07:59.248Z,14.20
2023-04-07T21:10:45.488Z,14.20
2023-04-07T21:13:31.508Z,14.20
2023-04-07T21:16:17.561Z,14.20
2023-04-07T21:19:03.522Z,14.20
2023-04-07T21:21:51.104Z,14.20
2023-04-07T21:24:37.068Z,14.10
2023-04-07T21:27:22.779Z,14.10
2023-04-07T21:30:09.435Z,14.20
2023-04-07T21:32:55.495Z,14.20
2023-04-07T21:35:41.366Z,14.10
2023-04-07T21:38:28.398Z,14.20
2023-04-07T21:41:14.047Z,14.00
2023-04-07T21:44:01.303Z,14.00
2023-04-07T21:46:47.516Z,14.10
2023-04-07T21:49:33.514Z,14.20
2023-04-07T21:52:19.793Z,14.20
2023-04-07T21:55:08.569Z,14.20
2023-04-07T21:57:54.428Z,14.20
2023-04-07T22:00:40.484Z,14.20
2023-04-07T22:03:26.303Z,14.10
2023-04-07T22:06:12.350Z,14.10
2023-04-07T22:09:01.883Z,14.10
2023-04-07T22:11:49.496Z,14.10
2023-04-07T22:14:35.617Z,14.10
2023-04-07T22:17:21.220Z,14.00
2023-04-07T22:20:08.541Z,13.90
2023-04-07T22:22:57.453Z,13.90
2023-04-07T22:25:43.344Z,13.80
2023-04-07T22:28:30.347Z,13.90
2023-04-07T22:31:16.217Z,13.90
2023-04-07T22:34:01.855Z,13.80
2023-04-07T22:36:47.545Z,13.80
2023-04-07T22:39:35.532Z,13.80
2023-04-07T22:42:21.093Z,13.80
2023-04-07T22:45:09.532Z,13.70
2023-04-07T22:47:55.614Z,13.60
2023-04-07T22:50:41.373Z,13.40
2023-04-07T22:53:26.963Z,13.30
2023-04-07T22:56:12.962Z,13.20
2023-04-07T22:59:05.364Z,13.10
2023-04-07T23:01:52.678Z,13.00
2023-04-07T23:04:38.560Z,13.00
2023-04-07T23:07:24.072Z,13.10
2023-04-07T23:10:09.894Z,12.90
2023-04-07T23:12:55.898Z,13.00
2023-04-07T23:15:41.821Z,12.90
2023-04-07T23:18:29.160Z,13.10
2023-04-07T23:21:14.657Z,13.10
2023-04-07T23:24:00.590Z,13.20
2023-04-07T23:26:46.371Z,13.30
2023-04-07T23:29:32.819Z,13.40
2023-04-07T23:32:18.578Z,13.50
2023-04-07T23:35:07.062Z,13.50
2023-04-07T23:37:52.832Z,13.60
2023-04-07T23:40:38.396Z,13.60
2023-04-07T23:43:24.202Z,13.60
2023-04-07T23:46:10.101Z,13.70
2023-04-07T23:48:55.617Z,13.70
2023-04-07T23:51:43.755Z,13.70
2023-04-07T23:54:29.308Z,13.60
2023-04-07T23:57:14.931Z,13.50
